Time,TemperatureF,DewpointF,PressureIn,WindDirection,WindDirectionDegrees,WindSpeedMPH,WindSpeedGustMPH,Humidity,HourlyPrecipIn,Conditions,Clouds,dailyrainin,SoftwareType,DateUTC
2013-01-03 00:11:00,48.2,37.0,30.32,North,3,12.0,18.0,66,0.00,,,0.00,weatherlink.com 1.10,2013-01-02 23:11:00,
2013-01-03 00:26:00,48.8,37.0,30.33,NE,47,9.0,18.0,63,0.00,,,0.00,weatherlink.com 1.10,2013-01-02 23:26:00,
2013-01-03 00:41:00,48.3,36.0,30.33,North,355,12.0,17.0,63,0.00,,,0.00,weatherlink.com 1.10,2013-01-02 23:41:00,
2013-01-03 00:56:00,48.3,36.0,30.33,NE,51,15.0,16.0,63,0.00,,,0.00,weatherlink.com 1.10,2013-01-02 23:56:00,
2013-01-03 01:11:00,48.3,36.0,30.33,ENE,61,9.0,14.0,63,0.00,,,0.00,weatherlink.com 1.10,2013-01-03 00:11:00,
2013-01-03 01:26:00,47.9,36.0,30.33,NE,44,10.0,11.0,64,0.00,,,0.00,weatherlink.com 1.10,2013-01-03 00:26:00,
2013-01-03 01:41:00,48.0,36.0,30.34,ENE,59,3.0,9.0,64,0.00,,,0.00,weatherlink.com 1.10,2013-01-03 00:41:00,
2013-01-03 01:56:00,47.9,37.0,30.35,NE,54,6.0,9.0,65,0.00,,,0.00,weatherlink.com 1.10,2013-01-03 00:56:00,
2013-01-03 02:11:00,48.4,36.0,30.35,ENE,73,4.0,9.0,63,0.00,,,0.00,weatherlink.com 1.10,2013-01-03 01:11:00,
2013-01-03 02:26:00,48.6,37.0,30.35,NNW,346,2.0,6.0,65,0.00,,,0.00,weatherlink.com 1.10,2013-01-03 01:26:00,
2013-01-03 02:41:00,47.6,37.0,30.36,NNE,17,4.0,12.0,68,0.00,,,0.00,weatherlink.com 1.10,2013-01-03 01:41:00,
2013-01-03 02:56:00,48.5,38.0,30.36,North,11,5.0,8.0,66,0.00,,,0.00,weatherlink.com 1.10,2013-01-03 01:56:00,
2013-01-03 03:11:00,49.4,38.0,30.36,NW,323,4.0,15.0,64,0.00,,,0.00,weatherlink.com 1.10,2013-01-03 02:11:00,
2013-01-03 03:26:00,49.5,38.0,30.36,NE,41,5.0,13.0,64,0.00,,,0.00,weatherlink.com 1.10,2013-01-03 02:26:00,
2013-01-03 03:41:00,49.8,38.0,30.36,NNW,341,5.0,15.0,64,0.00,,,0.00,weatherlink.com 1.10,2013-01-03 02:41:00,
2013-01-03 03:56:00,50.3,39.0,30.36,NNE,29,8.0,14.0,66,0.00,,,0.00,weatherlink.com 1.10,2013-01-03 02:56:00,
2013-01-03 04:11:00,50.2,41.0,30.36,NNE,17,11.0,17.0,70,0.00,,,0.00,weatherlink.com 1.10,2013-01-03 03:11:00,
2013-01-03 04:26:00,50.1,41.0,30.36,North,8,7.0,13.0,71,0.00,,,0.00,weatherlink.com 1.10,2013-01-03 03:26:00,
2013-01-03 04:56:00,49.7,42.0,30.36,North,359,6.0,11.0,75,0.00,,,0.00,weatherlink.com 1.10,2013-01-03 03:56:00,
2013-01-03 05:11:00,50.1,42.0,30.36,NNW,343,13.0,21.0,73,0.00,,,0.00,weatherlink.com 1.10,2013-01-03 04:11:00,
2013-01-03 05:26:00,49.9,42.0,30.37,North,1,6.0,17.0,74,0.00,,,0.00,weatherlink.com 1.10,2013-01-03 04:26:00,
2013-01-03 05:41:00,49.7,42.0,30.37,NE,46,10.0,16.0,74,0.00,,,0.00,weatherlink.com 1.10,2013-01-03 04:41:00,
2013-01-03 05:56:00,49.8,42.0,30.38,NNW,340,10.0,15.0,74,0.00,,,0.00,weatherlink.com 1.10,2013-01-03 04:56:00,
2013-01-03 06:12:00,49.7,42.0,30.39,NE,41,11.0,15.0,75,0.00,,,0.00,weatherlink.com 1.10,2013-01-03 05:12:00,
2013-01-03 06:26:00,49.2,42.0,30.39,NE,34,6.0,14.0,77,0.00,,,0.00,weatherlink.com 1.10,2013-01-03 05:26:00,
2013-01-03 06:41:00,48.9,42.0,30.40,NNE,12,4.0,8.0,78,0.00,,,0.00,weatherlink.com 1.10,2013-01-03 05:41:00,
2013-01-03 06:56:00,48.5,43.0,30.41,NE,35,4.0,7.0,81,0.00,,,0.00,weatherlink.com 1.10,2013-01-03 05:56:00,
2013-01-03 07:11:00,47.9,44.0,30.41,NE,36,4.0,6.0,85,0.01,,,0.01,weatherlink.com 1.10,2013-01-03 06:11:00,
2013-01-03 07:26:00,47.6,44.0,30.42,NE,53,4.0,8.0,87,0.02,,,0.02,weatherlink.com 1.10,2013-01-03 06:26:00,
2013-01-03 07:41:00,48.0,45.0,30.42,NNE,17,4.0,12.0,88,0.02,,,0.02,weatherlink.com 1.10,2013-01-03 06:41:00,
2013-01-03 07:56:00,48.6,45.0,30.42,North,9,11.0,17.0,88,0.03,,,0.03,weatherlink.com 1.10,2013-01-03 06:56:00,
2013-01-03 08:11:00,48.9,45.0,30.43,NE,47,7.0,14.0,87,0.02,,,0.03,weatherlink.com 1.10,2013-01-03 07:11:00,
2013-01-03 08:27:00,49.9,46.0,30.43,NNE,25,10.0,22.0,85,0.02,,,0.03,weatherlink.com 1.10,2013-01-03 07:27:00,
2013-01-03 08:42:00,50.1,46.0,30.44,NE,42,7.0,18.0,85,0.00,,,0.03,weatherlink.com 1.10,2013-01-03 07:42:00,
2013-01-03 08:57:00,50.5,46.0,30.44,North,11,18.0,20.0,84,0.00,,,0.03,weatherlink.com 1.10,2013-01-03 07:57:00,
2013-01-03 09:12:00,50.9,46.0,30.44,NW,317,17.0,23.0,83,0.00,,,0.03,weatherlink.com 1.10,2013-01-03 08:12:00,
2013-01-03 09:27:00,51.0,46.0,30.46,North,350,8.0,20.0,83,0.00,,,0.03,weatherlink.com 1.10,2013-01-03 08:27:00,
2013-01-03 09:42:00,51.2,46.0,30.47,NE,54,7.0,15.0,83,0.00,,,0.03,weatherlink.com 1.10,2013-01-03 08:42:00,
2013-01-03 09:57:00,51.7,46.0,30.48,North,354,7.0,19.0,82,0.00,,,0.03,weatherlink.com 1.10,2013-01-03 08:57:00,
2013-01-03 10:12:00,52.1,46.0,30.48,NNW,346,8.0,18.0,81,0.00,,,0.03,weatherlink.com 1.10,2013-01-03 09:12:00,
2013-01-03 10:27:00,52.4,47.0,30.49,NNE,32,12.0,17.0,81,0.00,,,0.03,weatherlink.com 1.10,2013-01-03 09:27:00,
2013-01-03 10:42:00,52.7,47.0,30.50,NNE,21,8.0,20.0,82,0.01,,,0.04,weatherlink.com 1.10,2013-01-03 09:42:00,
2013-01-03 10:57:00,53.3,47.0,30.50,NE,37,7.0,18.0,79,0.01,,,0.04,weatherlink.com 1.10,2013-01-03 09:57:00,
2013-01-03 11:12:00,53.6,47.0,30.51,NE,37,9.0,20.0,79,0.01,,,0.04,weatherlink.com 1.10,2013-01-03 10:12:00,
2013-01-03 11:27:00,54.5,47.0,30.51,North,6,12.0,18.0,77,0.01,,,0.04,weatherlink.com 1.10,2013-01-03 10:27:00,
2013-01-03 11:42:00,53.7,47.0,30.51,NE,42,10.0,21.0,79,0.00,,,0.04,weatherlink.com 1.10,2013-01-03 10:42:00,
2013-01-03 11:57:00,54.1,48.0,30.51,NE,44,9.0,26.0,79,0.00,,,0.04,weatherlink.com 1.10,2013-01-03 10:57:00,
2013-01-03 12:12:00,54.8,48.0,30.51,NE,49,16.0,22.0,77,0.00,,,0.04,weatherlink.com 1.10,2013-01-03 11:12:00,
2013-01-03 12:27:00,54.9,48.0,30.51,NE,35,15.0,20.0,78,0.00,,,0.04,weatherlink.com 1.10,2013-01-03 11:27:00,
2013-01-03 12:42:00,54.7,48.0,30.51,NE,41,15.0,20.0,77,0.00,,,0.04,weatherlink.com 1.10,2013-01-03 11:42:00,
2013-01-03 12:57:00,55.1,49.0,30.51,NE,34,10.0,21.0,79,0.00,,,0.04,weatherlink.com 1.10,2013-01-03 11:57:00,
2013-01-03 13:12:00,54.5,48.0,30.50,North,354,8.0,23.0,80,0.00,,,0.04,weatherlink.com 1.10,2013-01-03 12:12:00,
2013-01-03 13:27:00,54.2,49.0,30.50,NE,35,14.0,19.0,82,0.00,,,0.04,weatherlink.com 1.10,2013-01-03 12:27:00,
2013-01-03 13:42:00,54.3,49.0,30.50,North,352,13.0,21.0,81,0.00,,,0.04,weatherlink.com 1.10,2013-01-03 12:42:00,
2013-01-03 13:57:00,54.3,49.0,30.51,NE,54,16.0,24.0,82,0.00,,,0.04,weatherlink.com 1.10,2013-01-03 12:57:00,
2013-01-03 14:12:00,54.1,48.0,30.50,NNE,32,13.0,21.0,81,0.00,,,0.04,weatherlink.com 1.10,2013-01-03 13:12:00,
2013-01-03 14:27:00,54.5,49.0,30.50,NNE,25,13.0,19.0,81,0.00,,,0.04,weatherlink.com 1.10,2013-01-03 13:27:00,
2013-01-03 14:42:00,54.9,49.0,30.50,NE,36,11.0,18.0,80,0.00,,,0.04,weatherlink.com 1.10,2013-01-03 13:42:00,
2013-01-03 14:57:00,54.9,49.0,30.50,NE,47,19.0,20.0,79,0.00,,,0.04,weatherlink.com 1.10,2013-01-03 13:57:00,
2013-01-03 15:12:00,55.1,49.0,30.51,NE,41,10.0,22.0,79,0.00,,,0.04,weatherlink.com 1.10,2013-01-03 14:12:00,
2013-01-03 15:27:00,54.9,49.0,30.51,NNW,332,6.0,21.0,80,0.00,,,0.04,weatherlink.com 1.10,2013-01-03 14:27:00,
2013-01-03 15:42:00,55.3,49.0,30.52,ENE,77,8.0,21.0,79,0.00,,,0.04,weatherlink.com 1.10,2013-01-03 14:42:00,
2013-01-03 15:58:00,55.0,49.0,30.53,NE,51,6.0,13.0,80,0.00,,,0.04,weatherlink.com 1.10,2013-01-03 14:58:00,
2013-01-03 16:13:00,54.8,49.0,30.53,NNE,25,9.0,18.0,81,0.00,,,0.04,weatherlink.com 1.10,2013-01-03 15:13:00,
2013-01-03 16:28:00,54.1,49.0,30.54,North,11,11.0,19.0,82,0.00,,,0.04,weatherlink.com 1.10,2013-01-03 15:28:00,
2013-01-03 16:43:00,53.9,49.0,30.54,North,354,7.0,16.0,82,0.00,,,0.04,weatherlink.com 1.10,2013-01-03 15:43:00,
2013-01-03 16:58:00,53.6,49.0,30.55,NNE,29,4.0,14.0,83,0.00,,,0.04,weatherlink.com 1.10,2013-01-03 15:58:00,
2013-01-03 17:13:00,53.5,49.0,30.55,NE,41,9.0,14.0,83,0.00,,,0.04,weatherlink.com 1.10,2013-01-03 16:13:00,
2013-01-03 17:28:00,53.0,48.0,30.56,NNE,33,8.0,15.0,84,0.00,,,0.04,weatherlink.com 1.10,2013-01-03 16:28:00,
2013-01-03 17:43:00,52.7,48.0,30.56,NNE,17,4.0,16.0,85,0.00,,,0.04,weatherlink.com 1.10,2013-01-03 16:43:00,
2013-01-03 17:58:00,52.4,48.0,30.57,NE,35,7.0,10.0,85,0.00,,,0.04,weatherlink.com 1.10,2013-01-03 16:58:00,
2013-01-03 18:13:00,52.2,48.0,30.57,NE,44,3.0,11.0,86,0.00,,,0.04,weatherlink.com 1.10,2013-01-03 17:13:00,
2013-01-03 18:28:00,51.7,48.0,30.58,ENE,60,6.0,11.0,86,0.00,,,0.04,weatherlink.com 1.10,2013-01-03 17:28:00,
2013-01-03 18:43:00,51.4,48.0,30.58,NE,50,4.0,11.0,87,0.00,,,0.04,weatherlink.com 1.10,2013-01-03 17:43:00,
2013-01-03 18:58:00,51.8,48.0,30.59,NNE,25,7.0,12.0,87,0.00,,,0.04,weatherlink.com 1.10,2013-01-03 17:58:00,
2013-01-03 19:13:00,52.3,48.0,30.59,NE,41,6.0,15.0,86,0.00,,,0.04,weatherlink.com 1.10,2013-01-03 18:13:00,
2013-01-03 19:28:00,52.2,48.0,30.60,NE,46,12.0,14.0,86,0.00,,,0.04,weatherlink.com 1.10,2013-01-03 18:28:00,
2013-01-03 19:43:00,51.9,48.0,30.60,NNE,29,8.0,11.0,87,0.00,,,0.04,weatherlink.com 1.10,2013-01-03 18:43:00,
2013-01-03 19:58:00,51.8,48.0,30.61,NE,41,4.0,12.0,87,0.00,,,0.04,weatherlink.com 1.10,2013-01-03 18:58:00,
2013-01-03 20:13:00,52.0,48.0,30.61,ENE,57,4.0,11.0,87,0.00,,,0.04,weatherlink.com 1.10,2013-01-03 19:13:00,
2013-01-03 20:58:00,51.8,48.0,30.62,ENE,59,6.0,10.0,87,0.00,,,0.04,weatherlink.com 1.10,2013-01-03 19:58:00,
2013-01-03 21:13:00,51.6,48.0,30.62,NE,44,6.0,9.0,88,0.00,,,0.04,weatherlink.com 1.10,2013-01-03 20:13:00,
2013-01-03 21:28:00,51.1,48.0,30.63,NE,44,6.0,7.0,88,0.00,,,0.04,weatherlink.com 1.10,2013-01-03 20:28:00,
2013-01-03 21:43:00,50.7,48.0,30.63,NE,51,4.0,7.0,89,0.00,,,0.04,weatherlink.com 1.10,2013-01-03 20:43:00,
2013-01-03 21:58:00,50.6,48.0,30.63,NE,46,4.0,6.0,89,0.00,,,0.04,weatherlink.com 1.10,2013-01-03 20:58:00,
2013-01-03 22:13:00,50.6,48.0,30.63,NNE,32,4.0,10.0,89,0.00,,,0.04,weatherlink.com 1.10,2013-01-03 21:13:00,
2013-01-03 22:28:00,51.1,47.0,30.64,NNE,32,8.0,11.0,87,0.00,,,0.04,weatherlink.com 1.10,2013-01-03 21:28:00,
2013-01-03 22:43:00,51.3,47.0,30.64,NNE,32,9.0,9.0,84,0.00,,,0.04,weatherlink.com 1.10,2013-01-03 21:43:00,
2013-01-03 22:58:00,51.0,47.0,30.64,NNW,331,3.0,7.0,85,0.00,,,0.04,weatherlink.com 1.10,2013-01-03 21:58:00,
2013-01-03 23:13:00,50.0,46.0,30.64,NE,34,2.0,5.0,87,0.00,,,0.04,weatherlink.com 1.10,2013-01-03 22:13:00,
2013-01-03 23:28:00,49.4,46.0,30.64,NE,34,4.0,5.0,89,0.00,,,0.04,weatherlink.com 1.10,2013-01-03 22:28:00,
2013-01-03 23:43:00,49.5,47.0,30.64,NE,49,3.0,4.0,90,0.00,,,0.04,weatherlink.com 1.10,2013-01-03 22:43:00,
2013-01-03 23:58:00,49.0,46.0,30.64,North,1,0.0,1.0,89,0.00,,,0.04,weatherlink.com 1.10,2013-01-03 22:58:00,